Time;durP1;ratioP1;P1;durP2;ratioP2;P2;SDS_P1;SDS_P2;PMS_P1;PMS_P2;Temp;Humidity;BMP_temperature;BMP_pressure;BME280_temperature;BME280_humidity;BME280_pressure;Samples;Min_cycle;Max_cycle;Signal;HPM_P1;HPM_P2
2022/07/17 00:01:46;;;;;;;7.00;3.80;;;10.00;99.90;;;;;;4978109;28;20499;-70
2022/07/17 00:04:12;;;;;;;6.78;3.70;;;9.90;99.90;;;;;;4976613;28;20682;-70
2022/07/17 00:06:38;;;;;;;4.53;2.80;;;9.80;99.90;;;;;;4978518;28;20089;-69
2022/07/17 00:09:04;;;;;;;6.68;3.40;;;9.80;99.90;;;;;;4996730;28;20077;-70
2022/07/17 00:11:30;;;;;;;8.07;3.90;;;9.80;99.90;;;;;;4997009;28;20045;-69
2022/07/17 00:13:56;;;;;;;10.45;3.83;;;9.90;99.90;;;;;;4996712;28;20044;-70
2022/07/17 00:16:22;;;;;;;8.82;3.63;;;9.90;99.90;;;;;;5014134;28;20042;-69
2022/07/17 00:18:48;;;;;;;7.97;3.40;;;9.90;99.90;;;;;;4996841;28;20049;-69
2022/07/17 00:21:15;;;;;;;8.38;2.90;;;9.90;99.90;;;;;;4996445;28;20468;-69
2022/07/17 00:23:41;;;;;;;6.38;2.53;;;9.80;99.90;;;;;;5011837;28;20132;-70
2022/07/17 00:26:07;;;;;;;4.85;2.60;;;9.80;99.90;;;;;;4996292;28;20133;-69
2022/07/17 00:28:33;;;;;;;4.75;3.28;;;9.70;99.90;;;;;;4996541;28;20044;-70
2022/07/17 00:30:59;;;;;;;6.63;3.78;;;9.70;99.90;;;;;;4996251;28;20034;-70
2022/07/17 00:33:25;;;;;;;9.25;4.00;;;9.70;99.90;;;;;;5014062;28;20041;-70
2022/07/17 00:35:51;;;;;;;8.77;4.05;;;9.70;99.90;;;;;;5013763;28;20120;-70
2022/07/17 00:38:17;;;;;;;10.25;4.78;;;9.70;99.90;;;;;;4979480;28;20052;-69
2022/07/17 00:40:43;;;;;;;6.43;4.38;;;9.70;99.90;;;;;;4996325;28;20133;-69
2022/07/17 00:43:08;;;;;;;8.65;4.88;;;9.70;99.90;;;;;;4996298;28;20045;-69
2022/07/17 00:45:34;;;;;;;8.45;4.20;;;9.70;99.90;;;;;;4997419;28;20050;-69
2022/07/17 00:48:03;;;;;;;5.25;2.92;;;9.60;99.90;;;;;;4976607;28;20038;-70
2022/07/17 00:50:35;;;;;;;8.02;4.22;;;9.60;99.90;;;;;;4976640;28;20392;-69
2022/07/17 00:53:02;;;;;;;11.40;4.28;;;9.60;99.90;;;;;;4974546;28;20034;-69
2022/07/17 00:55:28;;;;;;;11.02;5.10;;;9.50;99.90;;;;;;4993915;28;20542;-69
2022/07/17 00:57:55;;;;;;;7.97;4.95;;;9.60;99.90;;;;;;4976719;28;20112;-69
2022/07/17 01:00:22;;;;;;;9.15;5.82;;;9.60;99.90;;;;;;4993964;28;20050;-69
2022/07/17 01:02:51;;;;;;;7.55;3.97;;;9.50;99.90;;;;;;4960181;28;20137;-70
2022/07/17 01:05:19;;;;;;;217.30;14.45;;;9.50;99.90;;;;;;4982687;28;20068;-69
2022/07/17 01:07:46;;;;;;;10.25;2.67;;;9.50;99.90;;;;;;5013408;28;20104;-69
2022/07/17 01:10:13;;;;;;;4.18;2.30;;;9.40;99.90;;;;;;4995821;28;20044;-70
2022/07/17 01:12:40;;;;;;;4.13;2.50;;;9.40;99.90;;;;;;4995784;28;20033;-69
2022/07/17 01:15:08;;;;;;;6.68;2.78;;;9.40;99.90;;;;;;4995571;28;20042;-69
2022/07/17 01:17:35;;;;;;;4.47;2.88;;;9.40;99.90;;;;;;4995463;28;20081;-69
2022/07/17 01:20:06;;;;;;;8.68;3.78;;;9.40;99.90;;;;;;4995384;28;20488;-70
2022/07/17 01:22:39;;;;;;;4.95;3.08;;;9.30;99.90;;;;;;4993116;28;20049;-69
2022/07/17 01:25:06;;;;;;;5.90;3.72;;;9.30;99.90;;;;;;5011849;28;20095;-69
2022/07/17 01:27:31;;;;;;;6.10;3.58;;;9.30;99.90;;;;;;4994464;28;20053;-69
2022/07/17 01:29:57;;;;;;;46.28;5.97;;;9.20;99.90;;;;;;4978548;28;20052;-69
2022/07/17 01:32:39;;;;;;;35.42;6.47;;;9.20;99.90;;;;;;4994521;28;20373;-69
2022/07/17 01:35:07;;;;;;;16.20;5.72;;;9.30;99.90;;;;;;4994538;28;20037;-69
2022/07/17 01:37:32;;;;;;;81.43;8.27;;;9.20;99.90;;;;;;5012013;28;20053;-69
2022/07/17 01:39:58;;;;;;;7.57;3.53;;;9.10;99.90;;;;;;4994331;28;20042;-69
2022/07/17 01:42:26;;;;;;;5.65;3.75;;;9.20;99.90;;;;;;5012209;28;20041;-69
2022/07/17 01:44:53;;;;;;;8.68;3.65;;;9.10;99.90;;;;;;4985009;28;20049;-69
2022/07/17 01:47:20;;;;;;;8.02;4.03;;;9.10;99.90;;;;;;4993123;28;20166;-69
2022/07/17 01:49:47;;;;;;;6.38;3.90;;;9.10;99.90;;;;;;4961283;28;20046;-69
2022/07/17 01:52:14;;;;;;;5.72;3.78;;;9.10;99.90;;;;;;4977655;28;20038;-69
2022/07/17 01:54:41;;;;;;;7.90;4.38;;;9.10;99.90;;;;;;4979908;28;20050;-69
2022/07/17 01:57:07;;;;;;;15.27;5.88;;;9.10;99.90;;;;;;4997423;28;20478;-69
2022/07/17 01:59:33;;;;;;;112.28;9.52;;;9.10;99.90;;;;;;4996578;28;20049;-69
2022/07/17 02:01:59;;;;;;;3.10;2.10;;;9.00;99.90;;;;;;4996294;28;20038;-69
2022/07/17 02:04:24;;;;;;;3.33;2.38;;;9.00;99.90;;;;;;4978820;28;20046;-69
2022/07/17 02:06:54;;;;;;;4.60;2.10;;;9.00;99.90;;;;;;4978272;28;20054;-69
2022/07/17 02:09:20;;;;;;;3.85;2.67;;;9.00;99.90;;;;;;4996356;28;20044;-69
2022/07/17 02:11:46;;;;;;;6.88;3.00;;;9.00;99.90;;;;;;4995976;28;20548;-69
2022/07/17 02:14:12;;;;;;;6.40;3.42;;;8.90;99.90;;;;;;4978715;28;20125;-69
2022/07/17 02:16:37;;;;;;;5.68;3.47;;;9.00;99.90;;;;;;4978564;28;20385;-69
2022/07/17 02:19:03;;;;;;;6.25;3.47;;;8.90;99.90;;;;;;4978666;28;20129;-69
2022/07/17 02:21:29;;;;;;;7.80;3.50;;;8.90;99.90;;;;;;4978342;28;20108;-69
2022/07/17 02:23:56;;;;;;;5.43;3.50;;;8.90;99.90;;;;;;4976069;28;20074;-68
2022/07/17 02:26:22;;;;;;;5.72;3.30;;;8.90;99.90;;;;;;4978402;28;20048;-69
2022/07/17 02:28:47;;;;;;;5.65;3.47;;;8.90;99.90;;;;;;4978453;28;20117;-69
2022/07/17 02:31:13;;;;;;;5.18;3.25;;;8.90;99.90;;;;;;4995757;28;20113;-69
2022/07/17 02:33:39;;;;;;;5.10;3.40;;;8.80;99.90;;;;;;4995745;28;20066;-69
2022/07/17 02:36:06;;;;;;;5.80;4.18;;;8.80;99.90;;;;;;4995435;28;20061;-69
2022/07/17 02:38:32;;;;;;;7.75;4.30;;;8.80;99.90;;;;;;4978044;28;20042;-68
2022/07/17 02:40:58;;;;;;;3.80;2.90;;;8.80;99.90;;;;;;4995597;28;20172;-69
2022/07/17 02:43:24;;;;;;;5.82;3.60;;;8.80;99.90;;;;;;4978301;28;20065;-68
2022/07/17 02:45:49;;;;;;;4.68;3.75;;;8.70;99.90;;;;;;4995579;28;20462;-68
2022/07/17 02:48:15;;;;;;;5.47;3.72;;;8.80;99.90;;;;;;4981112;28;20045;-68
2022/07/17 02:50:41;;;;;;;13.80;5.93;;;8.80;99.90;;;;;;4997761;28;20038;-68
2022/07/17 02:53:07;;;;;;;32.42;6.13;;;8.70;99.90;;;;;;5012681;28;20488;-68
2022/07/17 02:55:33;;;;;;;7.43;3.55;;;8.70;99.90;;;;;;4997648;28;20041;-68
2022/07/17 02:57:59;;;;;;;5.78;3.60;;;8.70;99.90;;;;;;4997195;28;20491;-68
2022/07/17 03:00:26;;;;;;;5.75;3.80;;;8.70;99.90;;;;;;4996899;28;20052;-68
2022/07/17 03:02:53;;;;;;;5.38;4.20;;;8.60;99.90;;;;;;4997137;28;20038;-68
2022/07/17 03:05:19;;;;;;;4.90;3.97;;;8.70;99.90;;;;;;4989721;28;20137;-68
2022/07/17 03:07:45;;;;;;;6.95;4.18;;;8.70;99.90;;;;;;4977478;28;20058;-68
2022/07/17 03:10:12;;;;;;;7.40;4.20;;;8.80;99.90;;;;;;4961860;28;20034;-68
2022/07/17 03:12:38;;;;;;;6.13;4.53;;;8.80;99.90;;;;;;4977458;28;20129;-68
2022/07/17 03:15:05;;;;;;;6.20;4.32;;;8.80;99.90;;;;;;4977626;28;20117;-68
2022/07/17 03:17:31;;;;;;;8.35;4.35;;;8.80;99.90;;;;;;4977254;28;20492;-68
2022/07/17 03:19:57;;;;;;;7.20;3.95;;;8.80;99.90;;;;;;4977359;28;20038;-68
2022/07/17 03:22:23;;;;;;;6.53;4.47;;;8.80;99.90;;;;;;4974806;28;20042;-68
2022/07/17 03:24:49;;;;;;;82.32;7.65;;;8.80;99.90;;;;;;4994706;28;20096;-68
2022/07/17 03:27:15;;;;;;;9.73;4.05;;;8.70;99.90;;;;;;4994685;28;20042;-68
2022/07/17 03:29:40;;;;;;;76.07;7.05;;;8.80;99.90;;;;;;4961199;28;20042;-68
2022/07/17 03:32:06;;;;;;;5.70;3.00;;;8.70;99.90;;;;;;4995020;28;20043;-68
2022/07/17 03:34:32;;;;;;;7.72;4.30;;;8.70;99.90;;;;;;4977298;28;20034;-68
2022/07/17 03:36:58;;;;;;;5.20;3.55;;;8.70;99.90;;;;;;4977270;28;20412;-68
2022/07/17 03:39:24;;;;;;;5.93;3.17;;;8.70;99.90;;;;;;4994661;28;20038;-68
2022/07/17 03:41:50;;;;;;;4.10;3.38;;;8.80;99.90;;;;;;4977225;28;20466;-68
2022/07/17 03:44:16;;;;;;;6.72;4.10;;;8.80;99.90;;;;;;4976764;28;20181;-68
2022/07/17 03:46:42;;;;;;;6.82;4.15;;;8.80;99.90;;;;;;4976714;28;20039;-68
2022/07/17 03:49:10;;;;;;;7.32;5.35;;;8.80;99.90;;;;;;4976787;28;20042;-68
2022/07/17 03:51:36;;;;;;;7.65;4.38;;;8.90;99.90;;;;;;4994430;28;20049;-68
2022/07/17 03:54:02;;;;;;;7.53;4.40;;;9.00;99.90;;;;;;4958192;28;20073;-68
2022/07/17 03:56:27;;;;;;;8.23;4.10;;;9.00;99.90;;;;;;4994029;28;20085;-68
2022/07/17 03:58:53;;;;;;;5.93;4.25;;;9.00;99.90;;;;;;4976845;28;20044;-68
2022/07/17 04:01:19;;;;;;;4.18;3.70;;;9.10;99.90;;;;;;4994038;28;20559;-68
2022/07/17 04:03:45;;;;;;;7.18;4.45;;;9.10;99.90;;;;;;4993874;28;20110;-68
2022/07/17 04:06:11;;;;;;;8.05;4.15;;;9.20;99.90;;;;;;4989906;28;20089;-68
2022/07/17 04:08:36;;;;;;;7.07;3.90;;;9.20;99.90;;;;;;4995926;28;20045;-68
2022/07/17 04:11:02;;;;;;;8.07;4.45;;;9.30;99.90;;;;;;4996475;28;20487;-68
2022/07/17 04:13:28;;;;;;;6.32;4.60;;;9.30;99.90;;;;;;4995941;28;20042;-68
2022/07/17 04:15:57;;;;;;;7.75;4.72;;;9.40;99.90;;;;;;5014304;28;20096;-68
2022/07/17 04:18:32;;;;;;;5.85;3.88;;;9.40;99.90;;;;;;4996276;28;20121;-68
2022/07/17 04:21:00;;;;;;;6.45;3.92;;;9.50;99.90;;;;;;4980330;28;20100;-68
2022/07/17 04:23:26;;;;;;;5.75;3.95;;;9.60;99.90;;;;;;4994340;28;20404;-68
2022/07/17 04:25:53;;;;;;;7.32;4.38;;;9.60;99.90;;;;;;4996373;28;20500;-68
2022/07/17 04:28:19;;;;;;;10.63;4.28;;;9.70;99.90;;;;;;4980374;28;20443;-68
2022/07/17 04:30:45;;;;;;;5.63;4.10;;;9.80;99.90;;;;;;4996436;28;20037;-68
2022/07/17 04:33:11;;;;;;;5.55;4.50;;;9.80;99.90;;;;;;4996155;28;20046;-68
2022/07/17 04:35:37;;;;;;;10.45;4.63;;;9.90;99.90;;;;;;4996302;28;20080;-68
2022/07/17 04:38:05;;;;;;;10.63;4.75;;;9.90;99.90;;;;;;5013722;28;20038;-68
2022/07/17 04:40:31;;;;;;;6.45;4.13;;;10.00;99.90;;;;;;4996439;28;20056;-68
2022/07/17 04:42:57;;;;;;;8.02;4.95;;;10.10;99.90;;;;;;4996155;28;20044;-68
2022/07/17 04:45:23;;;;;;;9.90;5.30;;;10.20;99.90;;;;;;4981909;28;20042;-68
2022/07/17 04:47:49;;;;;;;10.30;4.63;;;10.20;99.90;;;;;;4993898;28;20074;-68
2022/07/17 04:50:15;;;;;;;8.75;5.15;;;10.30;99.90;;;;;;4994105;28;20117;-68
2022/07/17 04:52:41;;;;;;;8.80;5.50;;;10.40;99.90;;;;;;4974280;28;20485;-68
2022/07/17 04:55:07;;;;;;;12.73;5.53;;;10.50;99.90;;;;;;4994129;28;20045;-68
2022/07/17 04:57:33;;;;;;;10.40;6.00;;;10.50;99.90;;;;;;4993819;28;20042;-68
2022/07/17 04:59:59;;;;;;;8.18;5.72;;;10.60;99.90;;;;;;4976508;28;20042;-68
2022/07/17 05:02:25;;;;;;;8.80;5.55;;;10.70;99.90;;;;;;4993415;28;20066;-68
2022/07/17 05:04:51;;;;;;;6.93;5.32;;;10.80;99.90;;;;;;4992821;28;20062;-68
2022/07/17 05:07:17;;;;;;;6.78;5.18;;;10.90;99.90;;;;;;4975473;28;20058;-68
2022/07/17 05:09:43;;;;;;;9.02;5.45;;;11.00;99.90;;;;;;4993002;28;20104;-68
2022/07/17 05:12:09;;;;;;;8.35;5.22;;;11.10;99.90;;;;;;4959564;28;20559;-68
2022/07/17 05:14:35;;;;;;;6.72;4.25;;;11.20;99.90;;;;;;4975485;28;20443;-68
2022/07/17 05:17:01;;;;;;;6.43;4.00;;;11.30;99.90;;;;;;4992709;28;20046;-68
2022/07/17 05:19:26;;;;;;;6.07;4.05;;;11.30;99.90;;;;;;4975076;28;20105;-68
2022/07/17 05:21:53;;;;;;;5.28;4.10;;;11.40;99.90;;;;;;4992687;28;20042;-68
2022/07/17 05:24:18;;;;;;;8.73;4.40;;;11.50;99.90;;;;;;4989979;28;20679;-68
2022/07/17 05:26:44;;;;;;;6.53;4.28;;;11.60;99.90;;;;;;4992613;28;20046;-68
2022/07/17 05:29:10;;;;;;;8.98;4.00;;;11.70;99.90;;;;;;4975280;28;20121;-68
2022/07/17 05:31:36;;;;;;;9.73;4.50;;;11.80;99.90;;;;;;4975095;28;20552;-68
2022/07/17 05:34:02;;;;;;;7.65;4.40;;;11.90;99.90;;;;;;4992592;28;20084;-69
2022/07/17 05:36:28;;;;;;;6.25;3.67;;;12.00;99.90;;;;;;4975280;28;20046;-68
2022/07/17 05:38:54;;;;;;;10.98;3.95;;;12.10;99.90;;;;;;4975282;28;20664;-69
2022/07/17 05:41:19;;;;;;;6.38;4.00;;;12.20;99.90;;;;;;4992467;28;20077;-69
2022/07/17 05:43:45;;;;;;;6.07;3.60;;;12.30;99.90;;;;;;4975774;28;20082;-69
2022/07/17 05:46:11;;;;;;;12.20;3.78;;;12.40;99.90;;;;;;5011850;28;20054;-69
2022/07/17 05:48:37;;;;;;;6.43;3.95;;;12.50;99.90;;;;;;4994048;28;20073;-69
2022/07/17 05:51:03;;;;;;;6.70;3.35;;;12.60;99.90;;;;;;5011942;28;20049;-69
2022/07/17 05:53:29;;;;;;;4.70;3.35;;;12.70;99.90;;;;;;4992182;28;20034;-68
2022/07/17 05:55:54;;;;;;;6.07;3.13;;;12.80;99.90;;;;;;5011904;28;20488;-68
2022/07/17 05:58:20;;;;;;;4.72;3.28;;;12.90;99.90;;;;;;4994665;28;20041;-69
2022/07/17 06:00:48;;;;;;;4.75;3.35;;;13.10;99.90;;;;;;4994243;28;20520;-69
2022/07/17 06:03:15;;;;;;;6.82;3.08;;;13.20;99.90;;;;;;4993995;28;20081;-68
2022/07/17 06:05:41;;;;;;;7.72;3.30;;;13.40;99.90;;;;;;4993962;28;20053;-68
2022/07/17 06:08:06;;;;;;;7.80;3.78;;;13.60;99.90;;;;;;5011687;28;20045;-68
2022/07/17 06:10:33;;;;;;;10.90;3.80;;;13.80;99.90;;;;;;5011861;28;20096;-68
2022/07/17 06:12:59;;;;;;;10.38;3.38;;;14.00;99.90;;;;;;4994050;28;20045;-68
2022/07/17 06:15:26;;;;;;;7.32;3.55;;;14.20;99.90;;;;;;4993962;28;20038;-69
2022/07/17 06:17:52;;;;;;;5.40;2.88;;;14.40;99.90;;;;;;5011877;28;20030;-69
2022/07/17 06:20:19;;;;;;;9.05;3.17;;;14.50;99.90;;;;;;4994169;28;20121;-69
2022/07/17 06:22:46;;;;;;;5.93;2.85;;;14.60;99.90;;;;;;4991685;28;20038;-68
2022/07/17 06:25:12;;;;;;;5.85;2.72;;;14.80;99.90;;;;;;4993957;28;20042;-68
2022/07/17 06:27:40;;;;;;;6.18;2.00;;;15.00;99.90;;;;;;5011394;28;20081;-69
2022/07/17 06:30:07;;;;;;;6.10;2.28;;;15.30;99.90;;;;;;5011570;28;20038;-69
2022/07/17 06:32:33;;;;;;;7.07;1.85;;;15.60;99.90;;;;;;5011774;28;20038;-69
2022/07/17 06:34:59;;;;;;;4.78;2.00;;;15.80;99.90;;;;;;5011711;28;20045;-69
2022/07/17 06:37:25;;;;;;;6.03;1.75;;;16.10;99.90;;;;;;4997617;28;20044;-68
2022/07/17 06:39:51;;;;;;;6.40;2.13;;;16.40;99.90;;;;;;5015142;28;20038;-69
2022/07/17 06:42:16;;;;;;;8.07;2.10;;;16.70;99.90;;;;;;4997550;28;20045;-69
2022/07/17 06:44:42;;;;;;;8.27;2.13;;;17.00;99.90;;;;;;5006202;28;20042;-69
2022/07/17 06:47:08;;;;;;;5.65;1.80;;;17.30;99.90;;;;;;4995414;28;20038;-68
2022/07/17 06:49:34;;;;;;;4.28;1.60;;;17.60;99.90;;;;;;4962067;28;20129;-69
2022/07/17 06:52:00;;;;;;;5.20;1.40;;;17.90;99.90;;;;;;4978085;28;20404;-68
2022/07/17 06:54:26;;;;;;;6.00;1.55;;;18.10;99.90;;;;;;4992814;28;20505;-69
2022/07/17 06:56:53;;;;;;;4.90;1.77;;;18.40;99.90;;;;;;4977852;28;20046;-68
2022/07/17 06:59:19;;;;;;;6.50;1.30;;;18.60;99.90;;;;;;4995191;28;20049;-68
2022/07/17 07:01:45;;;;;;;6.68;1.35;;;18.90;99.90;;;;;;4978061;28;20081;-68
2022/07/17 07:04:11;;;;;;;6.97;1.05;;;19.20;99.90;;;;;;4977567;28;20144;-68
2022/07/17 07:06:37;;;;;;;3.63;1.10;;;19.40;99.90;;;;;;4995282;28;20112;-68
2022/07/17 07:09:03;;;;;;;4.00;0.90;;;19.60;99.90;;;;;;4977664;28;20113;-67
2022/07/17 07:11:29;;;;;;;3.58;1.00;;;19.70;99.90;;;;;;4977498;28;20050;-68
2022/07/17 07:13:55;;;;;;;4.55;1.38;;;19.90;99.90;;;;;;4977529;28;20046;-67
2022/07/17 07:16:21;;;;;;;4.63;1.17;;;20.00;99.90;;;;;;4977731;28;20097;-68
2022/07/17 07:18:47;;;;;;;3.42;1.40;;;20.10;99.90;;;;;;4977299;28;20038;-68
2022/07/17 07:21:13;;;;;;;4.07;1.20;;;20.30;99.90;;;;;;4977384;28;20038;-68
2022/07/17 07:23:39;;;;;;;4.82;1.17;;;20.40;99.90;;;;;;4974997;28;20133;-68
2022/07/17 07:26:05;;;;;;;3.97;1.00;;;20.50;99.90;;;;;;4977146;28;20068;-68
2022/07/17 07:28:31;;;;;;;5.35;0.88;;;20.60;99.90;;;;;;4977368;28;20038;-69
2022/07/17 07:30:56;;;;;;;4.20;0.98;;;20.80;99.90;;;;;;4977411;28;20042;-69
2022/07/17 07:33:22;;;;;;;4.35;1.38;;;20.90;99.90;;;;;;4977448;28;20447;-68
2022/07/17 07:35:48;;;;;;;3.50;0.90;;;20.90;99.90;;;;;;4961179;28;20468;-68
2022/07/17 07:38:14;;;;;;;5.25;1.25;;;21.00;99.90;;;;;;4977327;28;20279;-68
2022/07/17 07:40:40;;;;;;;5.05;1.10;;;21.10;99.90;;;;;;4976714;28;20412;-69
2022/07/17 07:43:06;;;;;;;4.65;0.85;;;21.20;99.90;;;;;;4976968;28;20108;-68
2022/07/17 07:45:32;;;;;;;5.55;0.98;;;21.30;99.90;;;;;;5009654;28;20084;-69
2022/07/17 07:47:57;;;;;;;4.68;1.30;;;21.50;99.90;;;;;;4997952;28;20081;-69
2022/07/17 07:50:25;;;;;;;7.63;1.42;;;21.60;99.90;;;;;;4996841;28;20441;-68
2022/07/17 07:52:52;;;;;;;5.55;0.90;;;21.60;99.90;;;;;;4977921;28;20091;-68
2022/07/17 07:55:18;;;;;;;4.22;0.90;;;21.70;99.90;;;;;;4994782;28;20041;-69
2022/07/17 07:57:44;;;;;;;5.35;0.80;;;22.00;99.90;;;;;;5013932;28;20042;-68
2022/07/17 08:00:11;;;;;;;3.17;0.80;;;22.10;99.90;;;;;;5014039;28;20045;-68
2022/07/17 08:02:38;;;;;;;5.93;1.08;;;22.10;99.90;;;;;;4980528;28;20041;-68
2022/07/17 08:05:04;;;;;;;4.55;0.85;;;22.10;99.90;;;;;;4995598;28;20065;-68
2022/07/17 08:07:30;;;;;;;4.78;0.93;;;22.20;99.90;;;;;;5025054;28;20045;-69
2022/07/17 08:09:58;;;;;;;4.20;0.80;;;22.40;99.90;;;;;;4979228;28;20120;-68
2022/07/17 08:12:24;;;;;;;6.30;0.90;;;22.40;99.90;;;;;;4960745;28;20050;-68
2022/07/17 08:14:51;;;;;;;6.35;1.45;;;22.40;99.90;;;;;;4975890;28;20151;-68
2022/07/17 08:17:19;;;;;;;8.65;1.67;;;22.40;99.90;;;;;;4996308;28;20038;-69
2022/07/17 08:19:45;;;;;;;4.68;1.13;;;22.60;99.90;;;;;;4996195;28;20034;-69
2022/07/17 08:22:12;;;;;;;6.18;1.83;;;22.70;99.90;;;;;;4979036;28;20041;-69
2022/07/17 08:24:38;;;;;;;3.38;1.25;;;22.50;99.90;;;;;;4993727;28;20045;-68
2022/07/17 08:27:04;;;;;;;4.30;0.90;;;22.30;99.90;;;;;;4979476;28;20141;-68
2022/07/17 08:29:30;;;;;;;4.00;1.08;;;22.20;99.90;;;;;;4959848;28;20077;-69
2022/07/17 08:31:56;;;;;;;5.45;1.05;;;22.30;99.90;;;;;;4993104;28;20034;-70
2022/07/17 08:34:22;;;;;;;8.43;1.83;;;22.50;99.90;;;;;;4975685;28;20181;-69
2022/07/17 08:36:48;;;;;;;4.53;1.38;;;22.60;99.90;;;;;;4993069;28;20129;-68
2022/07/17 08:39:14;;;;;;;3.88;1.50;;;22.70;99.90;;;;;;4975566;28;20411;-68
2022/07/17 08:41:43;;;;;;;3.75;1.08;;;22.80;99.90;;;;;;4990384;28;20043;-68
2022/07/17 08:44:09;;;;;;;4.55;0.98;;;23.00;99.90;;;;;;4979490;28;20046;-69
2022/07/17 08:46:36;;;;;;;3.03;1.02;;;23.20;99.50;;;;;;4994781;28;20570;-68
2022/07/17 08:49:04;;;;;;;3.75;1.20;;;23.10;98.90;;;;;;5012064;28;20065;-68
2022/07/17 08:51:31;;;;;;;4.05;0.80;;;23.10;98.70;;;;;;4994888;28;20183;-68
2022/07/17 08:53:58;;;;;;;6.00;1.00;;;22.90;98.60;;;;;;4992457;28;20056;-68
2022/07/17 08:56:24;;;;;;;3.38;1.35;;;22.90;99.20;;;;;;4994708;28;20048;-68
2022/07/17 08:58:51;;;;;;;4.53;1.00;;;23.20;99.90;;;;;;4994640;28;20099;-68
2022/07/17 09:01:19;;;;;;;3.35;1.00;;;23.40;98.50;;;;;;4994828;28;20046;-68
2022/07/17 09:04:05;;;;;;;3.85;0.90;;;23.40;97.50;;;;;;4977911;28;20042;-68
2022/07/17 09:06:32;;;;;;;4.35;1.20;;;23.60;97.40;;;;;;4992590;28;20519;-69
2022/07/17 09:09:07;;;;;;;3.70;0.90;;;23.70;97.50;;;;;;4975590;28;20481;-68
2022/07/17 09:11:48;;;;;;;4.65;1.27;;;23.60;96.90;;;;;;4975232;28;20039;-68
2022/07/17 09:14:15;;;;;;;3.72;1.27;;;23.50;96.40;;;;;;4959303;28;20116;-68
2022/07/17 09:17:01;;;;;;;4.22;1.15;;;23.70;97.40;;;;;;4959318;28;20145;-70
2022/07/17 09:19:34;;;;;;;2.70;1.00;;;23.90;95.60;;;;;;4992664;28;20552;-69
2022/07/17 09:22:04;;;;;;;3.22;1.15;;;23.90;96.30;;;;;;4951290;28;20121;-70
2022/07/17 09:24:51;;;;;;;6.57;1.00;;;24.00;96.10;;;;;;4990658;28;20367;-68
2022/07/17 09:27:32;;;;;;;3.47;1.00;;;24.10;95.90;;;;;;4974917;28;20046;-69
2022/07/17 09:30:10;;;;;;;5.43;1.65;;;24.40;94.50;;;;;;4958820;28;20535;-70
2022/07/17 09:32:42;;;;;;;4.25;1.13;;;24.50;94.00;;;;;;4992522;28;20044;-70
2022/07/17 09:35:10;;;;;;;4.00;1.17;;;24.60;93.40;;;;;;4992476;28;20046;-69
2022/07/17 09:37:38;;;;;;;3.45;1.42;;;24.60;93.40;;;;;;4975321;28;20050;-70
2022/07/17 09:41:09;;;;;;;3.40;1.00;;;24.70;93.30;;;;;;4975121;28;20049;-71
2022/07/17 09:42:57;;;;;;;3.35;1.08;;;24.80;92.30;;;;;;4991856;28;20053;-68
2022/07/17 09:45:23;;;;;;;3.25;1.00;;;24.80;92.90;;;;;;4958795;28;20493;-69
2022/07/17 09:47:52;;;;;;;4.28;1.00;;;24.80;90.60;;;;;;4992074;28;20035;-72
2022/07/17 09:50:19;;;;;;;4.57;1.00;;;24.80;88.60;;;;;;4958960;28;20129;-70
2022/07/17 09:52:45;;;;;;;4.70;1.30;;;24.70;90.40;;;;;;4989900;28;20040;-71
2022/07/17 09:55:12;;;;;;;2.47;1.10;;;24.80;89.50;;;;;;4992830;28;20034;-71
2022/07/17 09:57:41;;;;;;;4.25;1.60;;;24.90;88.70;;;;;;4975588;28;20050;-70
2022/07/17 10:00:12;;;;;;;4.30;0.90;;;25.00;88.50;;;;;;4975052;28;20050;-68
2022/07/17 10:02:42;;;;;;;5.57;1.10;;;25.00;89.10;;;;;;4984171;28;20057;-69
2022/07/17 10:05:15;;;;;;;5.28;1.25;;;25.20;89.80;;;;;;4961356;28;20097;-71
2022/07/17 10:07:47;;;;;;;4.22;1.20;;;25.30;88.90;;;;;;4992917;28;20129;-69
2022/07/17 10:10:15;;;;;;;2.97;0.90;;;25.20;87.80;;;;;;4976153;28;20034;-69
2022/07/17 10:12:44;;;;;;;2.15;0.75;;;24.80;86.70;;;;;;4963168;28;20036;-68
2022/07/17 10:15:10;;;;;;;;;;;24.90;87.50;;;;;;4979503;28;20046;-72
2022/07/17 10:17:36;;;;;;;2.30;0.80;;;25.00;89.80;;;;;;4963184;28;19924;-68
2022/07/17 10:20:04;;;;;;;4.05;1.45;;;25.10;88.30;;;;;;4979280;28;20118;-69
2022/07/17 10:22:45;;;;;;;5.00;1.30;;;25.20;87.20;;;;;;4994728;28;20487;-69
2022/07/17 10:25:16;;;;;;;6.35;0.98;;;25.40;90.70;;;;;;4979055;28;20053;-69
2022/07/17 10:27:53;;;;;;;4.43;1.00;;;25.60;87.10;;;;;;4962845;28;20046;-69
2022/07/17 10:30:24;;;;;;;4.93;1.20;;;25.70;85.20;;;;;;4996827;28;20070;-69
2022/07/17 10:33:08;;;;;;;3.15;1.33;;;25.80;85.20;;;;;;4979131;28;20049;-69
2022/07/17 10:35:47;;;;;;;3.10;1.30;;;25.90;81.50;;;;;;4979068;28;20728;-68
2022/07/17 10:38:14;;;;;;;2.85;0.73;;;25.90;81.70;;;;;;4996223;28;20046;-68
2022/07/17 10:40:41;;;;;;;3.90;1.08;;;25.90;82.80;;;;;;4996856;28;20109;-69
2022/07/17 10:43:09;;;;;;;4.15;1.42;;;25.80;82.90;;;;;;4979059;28;20042;-69
2022/07/17 10:45:42;;;;;;;2.30;1.00;;;25.70;83.50;;;;;;4994293;28;20049;-67
2022/07/17 10:48:09;;;;;;;1.92;0.80;;;25.60;84.10;;;;;;5015990;28;20038;-68
2022/07/17 10:50:46;;;;;;;4.18;1.00;;;25.70;83.30;;;;;;5015790;28;20034;-67
2022/07/17 10:53:16;;;;;;;3.65;0.93;;;26.00;85.30;;;;;;4995757;28;20038;-69
2022/07/17 10:55:44;;;;;;;3.15;1.05;;;26.30;84.00;;;;;;4998509;28;20373;-69
2022/07/17 10:58:35;;;;;;;2.47;1.02;;;26.40;80.30;;;;;;4998489;28;20037;-70
2022/07/17 11:01:19;;;;;;;4.65;1.38;;;26.30;78.80;;;;;;5015569;28;20044;-70
2022/07/17 11:03:54;;;;;;;4.43;1.20;;;26.10;77.40;;;;;;4998146;28;20070;-70
2022/07/17 11:06:32;;;;;;;3.53;1.17;;;25.90;77.60;;;;;;4995767;28;20058;-71
2022/07/17 11:09:03;;;;;;;3.78;1.33;;;25.90;77.40;;;;;;4978387;28;20050;-68
2022/07/17 11:11:40;;;;;;;5.60;1.42;;;25.90;78.70;;;;;;4995905;28;20109;-67
2022/07/17 11:14:24;;;;;;;3.75;0.90;;;26.00;81.80;;;;;;4978578;28;20042;-68
2022/07/17 11:16:51;;;;;;;3.97;1.52;;;26.40;80.10;;;;;;4978445;28;20381;-69
2022/07/17 11:19:20;;;;;;;3.65;1.05;;;26.60;78.30;;;;;;4978649;28;20384;-69
2022/07/17 11:21:48;;;;;;;3.33;1.35;;;26.60;76.40;;;;;;4977862;28;20108;-69
2022/07/17 11:24:14;;;;;;;3.30;1.15;;;26.60;76.90;;;;;;4976632;28;20385;-76
2022/07/17 11:26:43;;;;;;;3.55;1.10;;;26.70;79.50;;;;;;4978299;28;20064;-69
2022/07/17 11:29:09;;;;;;;3.38;1.20;;;26.70;79.00;;;;;;4995903;28;20042;-72
2022/07/17 11:31:35;;;;;;;2.60;0.95;;;26.70;76.30;;;;;;4978292;28;20495;-75
2022/07/17 11:34:05;;;;;;;4.60;1.40;;;26.50;75.50;;;;;;4962026;28;20366;-75
2022/07/17 11:36:36;;;;;;;4.95;1.25;;;26.40;76.70;;;;;;4995476;28;20088;-72
2022/07/17 11:39:06;;;;;;;6.68;1.40;;;26.40;77.10;;;;;;4995490;28;20446;-72
2022/07/17 11:41:38;;;;;;;3.03;1.40;;;26.50;79.30;;;;;;4977729;28;20054;-71
2022/07/17 11:44:06;;;;;;;3.47;1.33;;;26.70;76.90;;;;;;4981184;28;20124;-70
2022/07/17 11:46:33;;;;;;;4.05;1.27;;;26.60;73.90;;;;;;5014683;28;20046;-74
2022/07/17 11:48:59;;;;;;;3.17;1.30;;;26.40;75.40;;;;;;4997475;28;20045;-72
2022/07/17 11:51:36;;;;;;;5.05;1.40;;;26.20;74.40;;;;;;4997249;28;20044;-71
2022/07/17 11:54:08;;;;;;;3.05;1.25;;;26.20;77.10;;;;;;4982811;28;20037;-71
2022/07/17 11:56:34;;;;;;;5.20;1.75;;;26.20;78.80;;;;;;5006503;28;20046;-71
2022/07/17 11:59:01;;;;;;;5.53;1.60;;;26.30;79.20;;;;;;5014759;28;20049;-69
2022/07/17 12:01:30;;;;;;;3.30;1.60;;;26.40;77.50;;;;;;5014364;28;20100;-72
2022/07/17 12:03:59;;;;;;;5.95;1.63;;;26.20;77.90;;;;;;4978840;28;20050;-73
2022/07/17 12:06:26;;;;;;;4.15;1.75;;;26.10;77.20;;;;;;4984622;28;20098;-73
2022/07/17 12:08:53;;;;;;;6.70;2.25;;;26.20;76.20;;;;;;4957438;28;20042;-71
2022/07/17 12:11:19;;;;;;;5.28;1.48;;;26.20;73.80;;;;;;4974633;28;20117;-72
2022/07/17 12:13:46;;;;;;;4.63;1.67;;;26.10;75.80;;;;;;4974409;28;20126;-70
2022/07/17 12:16:27;;;;;;;2.53;1.20;;;26.20;77.10;;;;;;4974098;28;20039;-68
2022/07/17 12:19:01;;;;;;;5.05;1.85;;;26.20;79.40;;;;;;4957182;28;20448;-69
2022/07/17 12:21:27;;;;;;;3.78;1.70;;;26.30;76.30;;;;;;4974647;28;20128;-74
2022/07/17 12:24:02;;;;;;;3.20;1.30;;;26.30;74.70;;;;;;4956146;28;20552;-75
2022/07/17 12:26:28;;;;;;;3.85;1.70;;;26.10;74.00;;;;;;4957896;28;20042;-71
2022/07/17 12:28:54;;;;;;;3.40;1.55;;;25.90;73.40;;;;;;4974495;28;20099;-73
2022/07/17 12:31:22;;;;;;;4.88;2.22;;;25.70;71.60;;;;;;4956979;28;20482;-73
2022/07/17 12:33:48;;;;;;;3.38;1.67;;;25.60;72.30;;;;;;4940044;28;20038;-73
2022/07/17 12:36:14;;;;;;;4.55;2.05;;;25.50;72.30;;;;;;4974104;28;20046;-72
2022/07/17 12:38:40;;;;;;;4.40;1.80;;;25.50;73.60;;;;;;4956670;28;20042;-71
2022/07/17 12:41:06;;;;;;;4.07;1.98;;;25.60;76.40;;;;;;4956768;28;20084;-71
2022/07/17 12:43:32;;;;;;;4.10;1.75;;;25.50;75.80;;;;;;4956524;28;20461;-71
2022/07/17 12:45:58;;;;;;;2.80;1.50;;;25.50;73.80;;;;;;4975237;28;20136;-70
2022/07/17 12:48:23;;;;;;;3.83;2.03;;;25.50;72.70;;;;;;4960184;28;20416;-72
2022/07/17 12:50:49;;;;;;;4.20;1.83;;;25.40;72.00;;;;;;4976610;28;20518;-72
2022/07/17 12:53:15;;;;;;;4.07;2.22;;;25.30;73.90;;;;;;4972179;28;20052;-74